createdAt,value
2022-08-17T00:01:22.536Z,75.82
2022-08-17T00:03:52.273Z,74.79
2022-08-17T00:06:19.968Z,75.25
2022-08-17T00:08:46.037Z,75.86
2022-08-17T00:11:13.732Z,77.73
2022-08-17T00:13:42.677Z,76.81
2022-08-17T00:16:14.465Z,75.93
2022-08-17T00:19:01.382Z,76.70
2022-08-17T00:21:25.474Z,76.26
2022-08-17T00:23:49.467Z,75.63
2022-08-17T00:26:14.303Z,76.70
2022-08-17T00:28:39.828Z,77.17
2022-08-17T00:31:03.949Z,76.97
2022-08-17T00:33:32.420Z,75.20
2022-08-17T00:35:57.836Z,74.95
2022-08-17T00:38:22.800Z,76.32
2022-08-17T00:40:50.387Z,76.93
2022-08-17T00:43:20.046Z,79.58
2022-08-17T00:45:45.035Z,77.29
2022-08-17T00:48:11.536Z,76.50
2022-08-17T00:51:01.229Z,77.04
2022-08-17T00:53:26.071Z,76.51
2022-08-17T00:55:50.437Z,77.51
2022-08-17T00:58:14.406Z,77.10
2022-08-17T01:00:43.162Z,76.80
2022-08-17T01:03:11.946Z,78.03
2022-08-17T01:05:42.183Z,77.75
2022-08-17T01:08:11.348Z,75.94
2022-08-17T01:10:59.736Z,75.94
2022-08-17T01:13:28.737Z,75.90
2022-08-17T01:15:58.663Z,76.70
2022-08-17T01:18:22.587Z,76.85
2022-08-17T01:20:52.408Z,76.83
2022-08-17T01:23:20.783Z,76.78
2022-08-17T01:25:45.476Z,77.46
2022-08-17T01:28:12.946Z,77.72
2022-08-17T01:30:59.519Z,77.37
2022-08-17T01:33:23.319Z,77.56
2022-08-17T01:35:47.108Z,78.38
2022-08-17T01:38:10.796Z,76.76
2022-08-17T01:40:39.726Z,76.58
2022-08-17T01:43:10.469Z,77.85
2022-08-17T01:45:40.620Z,79.40
2022-08-17T01:48:04.673Z,79.60
2022-08-17T01:50:35.012Z,79.78
2022-08-17T01:53:14.881Z,78.24
2022-08-17T01:55:47.519Z,77.68
2022-08-17T01:58:11.433Z,77.75
2022-08-17T02:00:59.630Z,77.85
2022-08-17T02:03:19.600Z,78.85
2022-08-17T02:05:43.306Z,79.15
2022-08-17T02:08:08.453Z,77.71
2022-08-17T02:10:46.819Z,80.15
2022-08-17T02:13:11.615Z,77.65
2022-08-17T02:15:35.892Z,78.95
2022-08-17T02:17:59.650Z,80.52
2022-08-17T02:20:41.585Z,82.07
2022-08-17T02:23:09.524Z,81.98
2022-08-17T02:25:35.140Z,80.50
2022-08-17T02:28:01.018Z,79.99
2022-08-17T02:30:59.578Z,79.80
2022-08-17T02:33:10.182Z,79.31
2022-08-17T02:35:33.980Z,79.97
2022-08-17T02:37:58.120Z,78.15
2022-08-17T02:40:36.003Z,78.25
2022-08-17T02:43:02.171Z,78.76
2022-08-17T02:45:28.074Z,78.87
2022-08-17T02:47:53.120Z,78.30
2022-08-17T02:50:20.279Z,77.47
2022-08-17T02:52:47.474Z,77.50
2022-08-17T02:55:28.941Z,77.68
2022-08-17T02:57:53.247Z,79.09
2022-08-17T03:00:28.854Z,80.00
2022-08-17T03:02:53.521Z,80.77
2022-08-17T03:05:20.141Z,80.69
2022-08-17T03:07:44.106Z,80.25
2022-08-17T03:10:09.524Z,79.58
2022-08-17T03:12:39.281Z,79.42
2022-08-17T03:15:05.975Z,79.16
2022-08-17T03:17:31.250Z,78.02
2022-08-17T03:19:54.960Z,77.86
2022-08-17T03:22:35.528Z,78.49
2022-08-17T03:25:02.561Z,80.41
2022-08-17T03:27:27.735Z,81.22
2022-08-17T03:29:51.561Z,79.55
2022-08-17T03:32:17.935Z,80.45
2022-08-17T03:34:43.479Z,79.64
2022-08-17T03:37:07.266Z,80.40
2022-08-17T03:39:31.295Z,80.76
2022-08-17T03:41:55.164Z,83.63
2022-08-17T03:44:18.984Z,79.95
2022-08-17T03:47:00.059Z,80.21
2022-08-17T03:49:41.340Z,80.38
2022-08-17T03:52:24.017Z,81.15
2022-08-17T03:55:05.591Z,81.09
2022-08-17T03:57:30.257Z,79.83
2022-08-17T03:59:54.785Z,80.46
2022-08-17T04:02:22.995Z,87.79
2022-08-17T04:04:47.089Z,90.72
2022-08-17T04:07:12.669Z,91.05
2022-08-17T04:09:37.816Z,91.16
2022-08-17T04:12:04.550Z,88.72
2022-08-17T04:14:31.309Z,84.85
2022-08-17T04:16:55.308Z,82.98
2022-08-17T04:19:19.169Z,82.74
2022-08-17T04:21:43.110Z,82.73
2022-08-17T04:24:08.976Z,81.33
2022-08-17T04:26:53.232Z,80.90
2022-08-17T04:29:18.040Z,83.08
2022-08-17T04:31:41.877Z,82.89
2022-08-17T04:34:05.837Z,81.86
2022-08-17T04:36:29.748Z,81.98
2022-08-17T04:38:53.565Z,81.65
2022-08-17T04:41:36.428Z,81.92
2022-08-17T04:44:00.992Z,84.68
2022-08-17T04:46:27.735Z,82.04
2022-08-17T04:48:55.923Z,82.39
2022-08-17T04:51:24.005Z,82.62
2022-08-17T04:53:54.203Z,81.26
2022-08-17T04:56:20.369Z,84.37
2022-08-17T04:58:44.685Z,84.45
2022-08-17T05:01:09.106Z,82.80
2022-08-17T05:03:33.595Z,83.60
2022-08-17T05:05:57.598Z,82.19
2022-08-17T05:08:23.104Z,84.55
2022-08-17T05:10:47.229Z,85.89
2022-08-17T05:13:16.732Z,85.17
2022-08-17T05:15:45.143Z,84.41
2022-08-17T05:18:11.733Z,84.93
2022-08-17T05:20:37.070Z,85.05
2022-08-17T05:23:04.721Z,83.19
2022-08-17T05:25:36.173Z,83.66
2022-08-17T05:28:02.119Z,83.03
2022-08-17T05:30:28.578Z,85.85
2022-08-17T05:32:54.800Z,84.81
2022-08-17T05:35:18.841Z,85.49
2022-08-17T05:37:42.682Z,84.30
2022-08-17T05:40:08.735Z,82.82
2022-08-17T05:42:32.741Z,83.04
2022-08-17T05:44:59.576Z,82.04
2022-08-17T05:47:26.598Z,82.83
2022-08-17T05:49:50.370Z,81.29
2022-08-17T05:52:30.052Z,81.17
2022-08-17T05:55:08.150Z,80.38
2022-08-17T05:57:52.877Z,79.82
2022-08-17T06:00:26.264Z,77.23
2022-08-17T06:03:16.365Z,73.21
2022-08-17T06:06:06.195Z,72.87
2022-08-17T06:08:39.584Z,71.33
2022-08-17T06:11:13.026Z,70.81
2022-08-17T06:13:56.208Z,70.76
2022-08-17T06:16:33.309Z,71.61
2022-08-17T06:19:05.148Z,68.70
2022-08-17T06:21:34.599Z,68.80
2022-08-17T06:24:23.952Z,68.32
2022-08-17T06:26:48.077Z,66.23
2022-08-17T06:29:24.944Z,64.63
2022-08-17T06:31:49.068Z,66.01
2022-08-17T06:34:15.048Z,63.80
2022-08-17T06:36:50.914Z,63.94
2022-08-17T06:39:39.004Z,61.88
2022-08-17T06:43:00.818Z,53.74
2022-08-17T06:45:09.848Z,56.87
2022-08-17T06:47:38.933Z,51.89
2022-08-17T06:50:14.720Z,56.23
2022-08-17T06:52:49.948Z,44.65
2022-08-17T06:55:20.307Z,50.51
2022-08-17T06:57:47.695Z,44.39
2022-08-17T07:00:18.120Z,49.36
2022-08-17T07:02:52.657Z,51.77
2022-08-17T07:05:22.466Z,46.56
2022-08-17T07:08:04.672Z,50.36
2022-08-17T07:10:32.951Z,43.13
2022-08-17T07:13:02.316Z,47.31
2022-08-17T07:15:34.081Z,44.04
2022-08-17T07:17:59.755Z,42.47
2022-08-17T07:20:25.381Z,45.94
2022-08-17T07:23:00.129Z,44.32
2022-08-17T07:25:24.433Z,41.83
2022-08-17T07:27:52.599Z,41.20
2022-08-17T07:30:20.512Z,40.57
2022-08-17T07:32:48.206Z,40.62
2022-08-17T07:35:22.098Z,43.69
2022-08-17T07:37:53.208Z,41.28
2022-08-17T07:40:32.126Z,40.39
2022-08-17T07:43:26.446Z,42.54
2022-08-17T07:46:26.540Z,43.66
2022-08-17T07:48:53.616Z,40.66
2022-08-17T07:51:27.056Z,42.73
2022-08-17T07:53:52.528Z,41.32
2022-08-17T07:56:37.889Z,41.45
2022-08-17T07:59:12.244Z,43.41
2022-08-17T08:01:39.592Z,41.77
2022-08-17T08:04:59.080Z,41.14
2022-08-17T08:07:25.965Z,40.75
2022-08-17T08:10:07.652Z,41.58
2022-08-17T08:12:36.322Z,42.37
2022-08-17T08:15:03.849Z,41.86
2022-08-17T08:17:35.710Z,41.05
2022-08-17T08:20:01.357Z,41.98
2022-08-17T08:23:04.908Z,39.98
2022-08-17T08:25:45.483Z,39.98
2022-08-17T08:28:25.636Z,39.83
2022-08-17T08:30:54.999Z,39.53
2022-08-17T08:33:39.925Z,40.62
2022-08-17T08:37:12.610Z,40.29
2022-08-17T08:39:10.744Z,39.17
2022-08-17T08:41:44.912Z,39.18
2022-08-17T08:45:00.677Z,36.32
2022-08-17T08:47:22.192Z,36.64
2022-08-17T08:50:37.701Z,38.48
2022-08-17T08:53:30.868Z,38.12
2022-08-17T08:56:00.361Z,39.11
2022-08-17T08:58:42.333Z,37.98
2022-08-17T09:01:16.661Z,39.04
2022-08-17T09:04:23.403Z,37.49
2022-08-17T09:07:03.461Z,37.56
2022-08-17T09:09:37.398Z,38.31
2022-08-17T09:12:08.072Z,37.25
2022-08-17T09:14:45.152Z,36.32
2022-08-17T09:17:18.313Z,35.57
2022-08-17T09:19:48.159Z,35.23
2022-08-17T09:22:23.969Z,36.76
2022-08-17T09:24:54.715Z,37.74
2022-08-17T09:27:22.198Z,36.63
2022-08-17T09:29:53.188Z,39.43
2022-08-17T09:32:21.913Z,38.05
2022-08-17T09:34:52.759Z,36.19
2022-08-17T09:37:25.702Z,37.19
2022-08-17T09:40:00.337Z,35.76
2022-08-17T09:42:31.483Z,36.36
2022-08-17T09:45:10.835Z,39.16
2022-08-17T09:47:45.582Z,35.79
2022-08-17T09:50:14.916Z,35.30
2022-08-17T09:52:39.289Z,37.60
2022-08-17T09:55:03.820Z,34.87
2022-08-17T09:57:49.467Z,33.06
2022-08-17T10:00:25.237Z,32.42
2022-08-17T10:03:28.440Z,33.15
2022-08-17T10:05:59.519Z,33.83
2022-08-17T10:08:35.538Z,35.73
2022-08-17T10:11:18.529Z,33.41
2022-08-17T10:13:53.412Z,32.66
2022-08-17T10:16:28.917Z,34.80
2022-08-17T10:19:03.873Z,31.56
2022-08-17T10:21:45.537Z,31.67
2022-08-17T10:24:33.164Z,30.08
2022-08-17T10:27:00.025Z,31.99
2022-08-17T10:29:29.118Z,29.61
2022-08-17T10:32:04.245Z,34.41
2022-08-17T10:35:02.276Z,31.16
2022-08-17T10:37:55.025Z,30.19
2022-08-17T10:40:36.821Z,30.66
2022-08-17T10:43:12.079Z,29.38
2022-08-17T10:45:49.304Z,35.63
2022-08-17T10:48:37.977Z,38.03
2022-08-17T10:51:09.861Z,28.71
2022-08-17T10:54:01.912Z,32.36
2022-08-17T10:56:46.837Z,28.00
2022-08-17T10:59:10.698Z,31.86
2022-08-17T11:02:14.010Z,32.46
2022-08-17T11:05:11.310Z,28.10
2022-08-17T11:07:54.003Z,29.28
2022-08-17T11:10:51.922Z,29.10
2022-08-17T11:13:32.439Z,28.18
2022-08-17T11:16:12.475Z,33.27
2022-08-17T11:19:11.945Z,28.31
2022-08-17T11:22:35.232Z,31.63
2022-08-17T11:25:15.503Z,29.88
2022-08-17T11:27:39.337Z,28.57
2022-08-17T11:30:07.862Z,26.33
2022-08-17T11:32:47.468Z,26.57
2022-08-17T11:35:35.348Z,28.25
2022-08-17T11:38:16.311Z,26.25
2022-08-17T11:41:13.400Z,25.69
2022-08-17T11:44:15.447Z,31.01
2022-08-17T11:47:23.989Z,28.30
2022-08-17T11:50:36.505Z,26.34
2022-08-17T11:53:00.300Z,25.08
2022-08-17T11:56:06.655Z,27.37
2022-08-17T11:58:38.559Z,26.71
2022-08-17T12:01:03.017Z,27.28
2022-08-17T12:03:57.062Z,23.72
2022-08-17T12:06:33.408Z,29.97
2022-08-17T12:09:03.101Z,30.49
2022-08-17T12:12:01.708Z,30.76
2022-08-17T12:14:45.016Z,30.64
2022-08-17T12:17:14.152Z,29.56
2022-08-17T12:19:49.961Z,25.88
2022-08-17T12:22:21.976Z,27.58
2022-08-17T12:24:56.788Z,30.06
2022-08-17T12:27:46.186Z,30.78
2022-08-17T12:30:21.440Z,23.76
2022-08-17T12:32:47.786Z,30.67
2022-08-17T12:35:23.207Z,27.67
2022-08-17T12:37:51.324Z,28.12
2022-08-17T12:40:23.712Z,28.03
2022-08-17T12:42:59.210Z,24.99
2022-08-17T12:45:29.438Z,27.75
2022-08-17T12:48:04.198Z,26.70
2022-08-17T12:50:30.241Z,25.13
2022-08-17T12:52:59.666Z,26.43
2022-08-17T12:55:26.390Z,26.13
2022-08-17T12:57:59.789Z,28.25
2022-08-17T13:00:30.623Z,24.09
2022-08-17T13:03:00.195Z,25.17
2022-08-17T13:05:29.074Z,25.00
2022-08-17T13:07:54.619Z,24.81
2022-08-17T13:10:30.084Z,26.10
2022-08-17T13:12:58.157Z,29.27
2022-08-17T13:15:29.706Z,25.13
2022-08-17T13:18:07.040Z,25.14
2022-08-17T13:20:31.705Z,26.98
2022-08-17T13:22:58.267Z,25.27
2022-08-17T13:25:22.041Z,28.94
2022-08-17T13:27:46.666Z,25.70
2022-08-17T13:30:14.873Z,26.21
2022-08-17T13:32:45.689Z,28.36
2022-08-17T13:35:39.214Z,29.71
2022-08-17T13:38:07.344Z,28.89
2022-08-17T13:40:54.181Z,29.60
2022-08-17T13:43:44.795Z,27.18
2022-08-17T13:46:20.452Z,30.02
2022-08-17T13:48:44.500Z,26.78
2022-08-17T13:51:30.376Z,29.01
2022-08-17T13:54:05.549Z,28.76
2022-08-17T13:56:38.762Z,27.38
2022-08-17T13:59:07.213Z,27.03
2022-08-17T14:01:36.001Z,26.48
2022-08-17T14:04:03.068Z,27.68
2022-08-17T14:06:51.799Z,28.30
2022-08-17T14:09:18.732Z,28.51
2022-08-17T14:11:46.083Z,29.71
2022-08-17T14:14:10.488Z,28.66
2022-08-17T14:16:41.863Z,26.52
2022-08-17T14:19:06.033Z,28.82
2022-08-17T14:21:29.758Z,26.47
2022-08-17T14:23:54.937Z,29.51
2022-08-17T14:26:18.944Z,26.72
2022-08-17T14:28:47.758Z,30.12
2022-08-17T14:31:20.722Z,29.51
2022-08-17T14:33:45.964Z,27.23
2022-08-17T14:36:10.101Z,27.92
2022-08-17T14:38:35.913Z,28.34
2022-08-17T14:40:59.687Z,29.07
2022-08-17T14:43:23.371Z,26.47
2022-08-17T14:45:47.107Z,27.82
2022-08-17T14:48:11.066Z,28.10
2022-08-17T14:50:37.490Z,29.77
2022-08-17T14:53:01.755Z,30.05
2022-08-17T14:55:25.696Z,28.88
2022-08-17T14:57:49.636Z,29.00
2022-08-17T15:00:15.723Z,32.63
2022-08-17T15:02:48.227Z,32.07
2022-08-17T15:05:12.028Z,33.13
2022-08-17T15:07:37.066Z,29.86
2022-08-17T15:10:02.059Z,25.85
2022-08-17T15:12:31.818Z,27.94
2022-08-17T15:14:57.136Z,30.88
2022-08-17T15:17:20.854Z,31.27
2022-08-17T15:19:44.621Z,29.48
2022-08-17T15:22:08.699Z,27.90
2022-08-17T15:24:34.195Z,31.37
2022-08-17T15:26:57.895Z,30.52
2022-08-17T15:29:22.672Z,27.98
2022-08-17T15:31:46.566Z,29.45
2022-08-17T15:34:10.356Z,33.19
2022-08-17T15:36:34.834Z,33.52
2022-08-17T15:38:59.001Z,30.99
2022-08-17T15:41:24.132Z,32.33
2022-08-17T15:43:50.909Z,27.60
2022-08-17T15:46:18.051Z,26.84
2022-08-17T15:48:44.638Z,29.62
2022-08-17T15:51:10.608Z,33.10
2022-08-17T15:53:34.353Z,30.42
2022-08-17T15:55:58.584Z,29.04
2022-08-17T15:58:32.249Z,27.05
2022-08-17T16:01:14.658Z,30.15
2022-08-17T16:03:55.130Z,30.50
2022-08-17T16:06:27.405Z,33.44
2022-08-17T16:08:51.577Z,31.53
2022-08-17T16:11:18.616Z,30.32
2022-08-17T16:13:47.297Z,30.60
2022-08-17T16:16:18.712Z,29.21
2022-08-17T16:18:43.101Z,29.57
2022-08-17T16:21:29.680Z,29.88
2022-08-17T16:23:58.375Z,31.41
2022-08-17T16:26:22.972Z,31.31
2022-08-17T16:28:48.378Z,30.02
2022-08-17T16:31:12.615Z,32.54
2022-08-17T16:33:37.670Z,33.24
2022-08-17T16:36:01.550Z,34.33
2022-08-17T16:38:25.357Z,31.05
2022-08-17T16:40:49.088Z,33.09
2022-08-17T16:43:12.824Z,31.94
2022-08-17T16:45:40.720Z,32.95
2022-08-17T16:48:05.623Z,33.94
2022-08-17T16:50:29.324Z,35.38
2022-08-17T16:52:53.410Z,34.36
2022-08-17T16:55:20.486Z,34.98
2022-08-17T16:57:47.232Z,37.28
2022-08-17T17:00:18.063Z,37.14
2022-08-17T17:02:47.441Z,37.70
2022-08-17T17:05:26.918Z,38.08
2022-08-17T17:08:03.543Z,37.66
2022-08-17T17:10:34.544Z,38.89
2022-08-17T17:13:03.708Z,39.08
2022-08-17T17:15:37.485Z,40.03
2022-08-17T17:18:07.818Z,42.57
2022-08-17T17:20:40.141Z,40.94
2022-08-17T17:23:09.531Z,40.56
2022-08-17T17:25:45.348Z,41.05
2022-08-17T17:28:25.007Z,43.39
2022-08-17T17:31:07.533Z,41.28
2022-08-17T17:33:41.538Z,42.71
2022-08-17T17:36:13.768Z,41.17
2022-08-17T17:38:47.124Z,41.70
2022-08-17T17:41:25.361Z,41.23
2022-08-17T17:43:54.046Z,42.89
2022-08-17T17:46:28.033Z,42.74
2022-08-17T17:48:54.141Z,42.57
2022-08-17T17:51:35.151Z,43.60
2022-08-17T17:54:24.205Z,42.87
2022-08-17T17:57:04.952Z,44.87
2022-08-17T17:59:44.044Z,43.88
2022-08-17T18:02:37.027Z,44.47
2022-08-17T18:05:12.837Z,44.60
2022-08-17T18:07:44.694Z,44.42
2022-08-17T18:10:29.462Z,45.11
2022-08-17T18:13:05.509Z,44.07
2022-08-17T18:15:34.917Z,44.53
2022-08-17T18:18:38.583Z,45.28
2022-08-17T18:21:09.080Z,45.99
2022-08-17T18:23:33.538Z,45.68
2022-08-17T18:25:58.767Z,46.42
2022-08-17T18:28:27.943Z,47.26
2022-08-17T18:31:11.832Z,47.38
2022-08-17T18:33:38.898Z,49.06
2022-08-17T18:36:04.300Z,49.17
2022-08-17T18:38:33.839Z,50.07
2022-08-17T18:41:20.516Z,48.82
2022-08-17T18:43:53.668Z,50.45
2022-08-17T18:46:29.638Z,50.77
2022-08-17T18:48:58.950Z,50.22
2022-08-17T18:51:40.538Z,49.36
2022-08-17T18:54:21.622Z,51.17
2022-08-17T18:56:52.044Z,51.80
2022-08-17T18:59:39.440Z,52.16
2022-08-17T19:02:43.382Z,52.36
2022-08-17T19:05:13.641Z,52.14
2022-08-17T19:07:42.756Z,52.52
2022-08-17T19:10:24.640Z,53.11
2022-08-17T19:12:55.099Z,54.22
2022-08-17T19:15:31.880Z,53.44
2022-08-17T19:18:00.872Z,53.42
2022-08-17T19:20:32.081Z,54.35
2022-08-17T19:23:08.396Z,54.38
2022-08-17T19:25:36.115Z,54.37
2022-08-17T19:28:21.930Z,54.46
2022-08-17T19:30:46.589Z,54.70
2022-08-17T19:33:10.680Z,54.96
2022-08-17T19:35:44.881Z,54.84
2022-08-17T19:38:23.480Z,55.19
2022-08-17T19:41:02.188Z,55.55
2022-08-17T19:43:48.101Z,55.48
2022-08-17T19:46:26.163Z,56.02
2022-08-17T19:49:05.148Z,55.63
2022-08-17T19:51:40.661Z,56.28
2022-08-17T19:54:22.869Z,56.42
2022-08-17T19:56:57.112Z,56.42
2022-08-17T19:59:36.378Z,56.78
2022-08-17T20:02:09.993Z,56.64
2022-08-17T20:04:42.540Z,56.45
2022-08-17T20:07:12.268Z,55.94
2022-08-17T20:09:42.755Z,55.83
2022-08-17T20:12:11.885Z,55.38
2022-08-17T20:14:55.001Z,56.98
2022-08-17T20:17:20.278Z,57.23
2022-08-17T20:19:55.513Z,56.29
2022-08-17T20:22:26.563Z,55.67
2022-08-17T20:25:01.335Z,57.24
2022-08-17T20:27:31.925Z,56.35
2022-08-17T20:30:34.238Z,56.02
2022-08-17T20:32:59.795Z,56.08
2022-08-17T20:35:27.477Z,56.35
2022-08-17T20:37:59.886Z,59.20
2022-08-17T20:40:35.904Z,57.14
2022-08-17T20:43:01.216Z,56.22
2022-08-17T20:46:05.631Z,55.47
2022-08-17T20:48:38.787Z,56.05
2022-08-17T20:51:27.281Z,54.65
2022-08-17T20:54:34.500Z,55.87
2022-08-17T20:57:01.563Z,55.83
2022-08-17T21:00:01.430Z,55.48
2022-08-17T21:02:28.088Z,56.23
2022-08-17T21:05:30.234Z,56.52
2022-08-17T21:07:59.108Z,57.11
2022-08-17T21:10:38.165Z,56.61
2022-08-17T21:13:33.131Z,57.23
2022-08-17T21:16:02.407Z,57.25
2022-08-17T21:18:38.608Z,57.95
2022-08-17T21:21:17.903Z,58.35
2022-08-17T21:24:07.552Z,58.32
2022-08-17T21:26:50.075Z,57.58
2022-08-17T21:29:31.730Z,59.02
2022-08-17T21:32:19.031Z,58.31
2022-08-17T21:34:46.204Z,58.96
2022-08-17T21:37:34.946Z,58.51
2022-08-17T21:40:02.644Z,59.56
2022-08-17T21:42:30.272Z,60.97
2022-08-17T21:45:01.125Z,60.39
2022-08-17T21:47:27.873Z,60.19
2022-08-17T21:49:52.404Z,60.54
2022-08-17T21:52:18.858Z,60.59
2022-08-17T21:54:50.411Z,59.82
2022-08-17T21:57:20.984Z,59.97
2022-08-17T21:59:44.936Z,60.35
2022-08-17T22:02:19.330Z,60.21
2022-08-17T22:04:44.131Z,59.74
2022-08-17T22:07:12.426Z,61.08
2022-08-17T22:09:43.962Z,59.63
2022-08-17T22:12:11.404Z,60.67
2022-08-17T22:14:52.553Z,60.87
2022-08-17T22:17:23.325Z,61.21
2022-08-17T22:19:52.185Z,61.80
2022-08-17T22:23:00.068Z,61.25
2022-08-17T22:25:25.060Z,60.15
2022-08-17T22:27:56.476Z,61.59
2022-08-17T22:30:32.128Z,61.57
2022-08-17T22:32:57.689Z,61.40
2022-08-17T22:35:38.884Z,61.07
2022-08-17T22:38:32.646Z,61.76
2022-08-17T22:41:15.282Z,61.87
2022-08-17T22:43:43.089Z,62.54
2022-08-17T22:46:10.601Z,61.35
2022-08-17T22:48:36.304Z,63.52
2022-08-17T22:51:12.344Z,63.62
2022-08-17T22:53:55.836Z,62.36
2022-08-17T22:56:42.028Z,61.87
2022-08-17T22:59:23.544Z,62.38
2022-08-17T23:02:12.743Z,62.25
2022-08-17T23:04:40.872Z,62.27
2022-08-17T23:07:05.508Z,63.25
2022-08-17T23:09:29.967Z,63.40
2022-08-17T23:11:58.875Z,62.95
2022-08-17T23:14:23.220Z,62.27
2022-08-17T23:16:46.998Z,62.42
2022-08-17T23:19:10.961Z,63.29
2022-08-17T23:21:37.239Z,64.28
2022-08-17T23:24:01.267Z,62.60
2022-08-17T23:26:27.810Z,62.74
2022-08-17T23:28:51.767Z,62.50
2022-08-17T23:31:18.767Z,62.30
2022-08-17T23:33:48.340Z,62.95
2022-08-17T23:36:16.964Z,64.45
2022-08-17T23:38:43.587Z,63.36
2022-08-17T23:41:13.741Z,62.94
2022-08-17T23:43:37.479Z,63.97
2022-08-17T23:46:04.088Z,62.51
2022-08-17T23:48:35.574Z,63.24
2022-08-17T23:51:04.083Z,63.13
2022-08-17T23:53:37.464Z,64.41
2022-08-17T23:56:06.892Z,62.55
2022-08-17T23:58:34.271Z,63.85
